Time;durP1;ratioP1;P1;durP2;ratioP2;P2;SDS_P1;SDS_P2;PMS_P1;PMS_P2;Temp;Humidity;BMP_temperature;BMP_pressure;BME280_temperature;BME280_humidity;BME280_pressure;Samples;Min_cycle;Max_cycle;Signal;HPM_P1;HPM_P2
2023/07/26 00:01:07;;;;;;;4.97;2.10;;;;;;;;;;5043883;28;20595;-78
2023/07/26 00:03:33;;;;;;;4.45;2.50;;;;;;;;;;5063826;28;20652;-77
2023/07/26 00:06:00;;;;;;;5.68;2.20;;;;;;;;;;5048568;28;20058;-77
2023/07/26 00:08:26;;;;;;;4.32;2.17;;;;;;;;;;5064565;28;21662;-77
2023/07/26 00:10:52;;;;;;;8.05;2.25;;;;;;;;;;5069411;28;20107;-76
2023/07/26 00:13:18;;;;;;;8.65;2.33;;;;;;;;;;5068055;28;20051;-76
2023/07/26 00:15:45;;;;;;;5.07;2.67;;;;;;;;;;5087620;28;20144;-77
2023/07/26 00:18:11;;;;;;;8.80;2.33;;;;;;;;;;5069068;28;21660;-76
2023/07/26 00:20:37;;;;;;;7.70;3.28;;;;;;;;;;5056317;28;20079;-77
2023/07/26 00:23:03;;;;;;;4.88;2.22;;;;;;;;;;5037629;28;20055;-76
2023/07/26 00:25:29;;;;;;;4.78;2.40;;;;;;;;;;5061096;28;20627;-77
2023/07/26 00:27:55;;;;;;;5.97;2.50;;;;;;;;;;5065441;28;20122;-77
2023/07/26 00:30:21;;;;;;;5.50;2.35;;;;;;;;;;5066509;28;20039;-77
2023/07/26 00:32:47;;;;;;;5.95;2.33;;;;;;;;;;5050207;28;20058;-76
2023/07/26 00:35:21;;;;;;;6.13;2.75;;;;;;;;;;5051444;28;20128;-77
2023/07/26 00:37:47;;;;;;;7.87;2.40;;;;;;;;;;5044673;28;20082;-77
2023/07/26 00:40:13;;;;;;;7.88;2.63;;;;;;;;;;5068877;28;20061;-75
2023/07/26 00:42:39;;;;;;;6.10;2.10;;;;;;;;;;5068137;28;20518;-75
2023/07/26 00:45:05;;;;;;;5.20;2.10;;;;;;;;;;5064915;28;20044;-77
2023/07/26 00:47:31;;;;;;;7.25;2.50;;;;;;;;;;5066883;28;20475;-77
2023/07/26 00:49:57;;;;;;;6.00;2.47;;;;;;;;;;5068570;28;20689;-77
2023/07/26 00:52:25;;;;;;;9.57;2.28;;;;;;;;;;5050259;28;20054;-77
2023/07/26 00:54:52;;;;;;;3.17;1.88;;;;;;;;;;5062110;28;20735;-76
2023/07/26 00:57:18;;;;;;;9.13;2.35;;;;;;;;;;5068538;28;20495;-78
2023/07/26 00:59:44;;;;;;;7.75;2.33;;;;;;;;;;5066877;28;20051;-85
2023/07/26 01:02:10;;;;;;;7.57;2.40;;;;;;;;;;5066723;28;20537;-84
2023/07/26 01:04:37;;;;;;;5.88;2.20;;;;;;;;;;5070551;28;20047;-84
2023/07/26 01:07:19;;;;;;;14.18;1.77;;;;;;;;;;5068944;28;20176;-84
2023/07/26 01:10:04;;;;;;;4.93;1.67;;;;;;;;;;5053226;28;21774;-83
2023/07/26 01:12:34;;;;;;;14.57;2.42;;;;;;;;;;5078527;28;20079;-84
2023/07/26 01:15:03;;;;;;;11.98;2.65;;;;;;;;;;5059658;28;20508;-83
2023/07/26 01:17:30;;;;;;;8.70;2.08;;;;;;;;;;5070932;28;20814;-83
2023/07/26 01:19:56;;;;;;;9.88;2.33;;;;;;;;;;5033935;28;20121;-80
2023/07/26 01:22:22;;;;;;;8.90;2.55;;;;;;;;;;5068602;28;20162;-81
2023/07/26 01:24:48;;;;;;;10.57;2.40;;;;;;;;;;5049344;28;20070;-81
2023/07/26 01:27:14;;;;;;;8.50;2.60;;;;;;;;;;5066463;28;20055;-81
2023/07/26 01:29:40;;;;;;;6.97;2.50;;;;;;;;;;5037273;28;20083;-81
2023/07/26 01:32:11;;;;;;;9.55;2.22;;;;;;;;;;5068254;28;20051;-82
2023/07/26 01:34:37;;;;;;;8.43;2.33;;;;;;;;;;5052771;28;20119;-81
2023/07/26 01:37:03;;;;;;;11.95;2.33;;;;;;;;;;5067257;28;20407;-81
2023/07/26 01:39:30;;;;;;;10.40;2.88;;;;;;;;;;5068232;28;20130;-81
2023/07/26 01:41:57;;;;;;;6.85;2.50;;;;;;;;;;5066150;28;20695;-81
2023/07/26 01:44:23;;;;;;;9.57;2.60;;;;;;;;;;5052795;28;20039;-82
2023/07/26 01:46:52;;;;;;;7.70;2.42;;;;;;;;;;5053012;28;20509;-81
2023/07/26 01:49:21;;;;;;;9.15;2.70;;;;;;;;;;5067476;28;20047;-82
2023/07/26 01:51:47;;;;;;;6.35;2.53;;;;;;;;;;5049858;28;20062;-82
2023/07/26 01:54:13;;;;;;;6.00;2.30;;;;;;;;;;5052731;28;20479;-82
2023/07/26 01:56:39;;;;;;;7.75;2.28;;;;;;;;;;5069315;28;20039;-81
2023/07/26 01:59:05;;;;;;;6.15;2.35;;;;;;;;;;5042542;28;20050;-81
2023/07/26 02:01:31;;;;;;;10.95;2.80;;;;;;;;;;5062104;28;20059;-81
2023/07/26 02:03:57;;;;;;;4.28;2.03;;;;;;;;;;5073032;28;20048;-82
2023/07/26 02:06:23;;;;;;;8.55;2.40;;;;;;;;;;5053272;28;20046;-82
2023/07/26 02:08:49;;;;;;;7.57;2.20;;;;;;;;;;5046546;28;20098;-82
2023/07/26 02:11:15;;;;;;;7.78;2.22;;;;;;;;;;5052952;28;20572;-82
2023/07/26 02:13:42;;;;;;;9.77;2.55;;;;;;;;;;5068429;28;20658;-82
2023/07/26 02:16:08;;;;;;;10.65;2.42;;;;;;;;;;5052723;28;20422;-81
2023/07/26 02:18:34;;;;;;;7.30;2.70;;;;;;;;;;5048511;28;20052;-82
2023/07/26 02:21:00;;;;;;;10.25;2.40;;;;;;;;;;5068554;28;20044;-82
2023/07/26 02:23:26;;;;;;;9.15;2.88;;;;;;;;;;5068546;28;20514;-82
2023/07/26 02:25:52;;;;;;;7.90;2.40;;;;;;;;;;5051830;28;20075;-82
2023/07/26 02:28:18;;;;;;;9.77;2.67;;;;;;;;;;5069511;28;20463;-83
2023/07/26 02:30:44;;;;;;;8.60;2.80;;;;;;;;;;5052547;28;20075;-82
2023/07/26 02:33:10;;;;;;;10.00;2.83;;;;;;;;;;5071132;28;20058;-82
2023/07/26 02:35:36;;;;;;;14.65;2.65;;;;;;;;;;5053638;28;20066;-83
2023/07/26 02:38:02;;;;;;;5.78;3.00;;;;;;;;;;5065856;28;20308;-82
2023/07/26 02:40:29;;;;;;;10.25;3.33;;;;;;;;;;5053779;28;20043;-82
2023/07/26 02:42:55;;;;;;;12.82;3.60;;;;;;;;;;5053266;28;20101;-82
2023/07/26 02:45:21;;;;;;;13.48;3.10;;;;;;;;;;5069060;28;20212;-82
2023/07/26 02:47:47;;;;;;;8.27;3.05;;;;;;;;;;5051730;28;20568;-82
2023/07/26 02:50:16;;;;;;;9.07;3.15;;;;;;;;;;5066992;28;20078;-77
2023/07/26 02:52:42;;;;;;;13.00;3.78;;;;;;;;;;5047822;28;20667;-78
2023/07/26 02:55:08;;;;;;;9.52;3.45;;;;;;;;;;5083236;28;20044;-76
2023/07/26 02:57:34;;;;;;;7.38;3.28;;;;;;;;;;5065719;28;20047;-77
2023/07/26 03:00:00;;;;;;;8.15;3.30;;;;;;;;;;5082310;28;20792;-77
2023/07/26 03:02:26;;;;;;;8.32;3.45;;;;;;;;;;5061933;28;20051;-78
2023/07/26 03:04:53;;;;;;;7.05;3.00;;;;;;;;;;5064460;28;20119;-76
2023/07/26 03:07:19;;;;;;;8.40;3.28;;;;;;;;;;5062550;28;20051;-76
2023/07/26 03:09:45;;;;;;;11.55;3.60;;;;;;;;;;5062877;28;20047;-77
2023/07/26 03:12:11;;;;;;;7.00;3.28;;;;;;;;;;5060764;28;20040;-78
2023/07/26 03:14:40;;;;;;;6.57;3.00;;;;;;;;;;5061972;28;20071;-77
2023/07/26 03:17:07;;;;;;;9.63;3.85;;;;;;;;;;5061974;28;20044;-77
2023/07/26 03:19:33;;;;;;;7.07;3.60;;;;;;;;;;5062626;28;20055;-77
2023/07/26 03:22:00;;;;;;;9.65;3.05;;;;;;;;;;5049490;28;20138;-76
2023/07/26 03:24:26;;;;;;;14.70;4.25;;;;;;;;;;5062191;28;20096;-76
2023/07/26 03:26:52;;;;;;;6.60;2.47;;;;;;;;;;5061126;28;20581;-77
2023/07/26 03:29:18;;;;;;;13.30;3.70;;;;;;;;;;5044671;28;20491;-77
2023/07/26 03:31:44;;;;;;;14.70;3.45;;;;;;;;;;5043864;28;20116;-77
2023/07/26 03:34:10;;;;;;;6.78;3.13;;;;;;;;;;5060108;28;20040;-77
2023/07/26 03:36:37;;;;;;;11.98;4.13;;;;;;;;;;5046666;28;20644;-76
2023/07/26 03:39:03;;;;;;;9.85;3.13;;;;;;;;;;5046808;28;20054;-76
2023/07/26 03:41:29;;;;;;;7.32;3.28;;;;;;;;;;5051487;28;20055;-75
2023/07/26 03:43:55;;;;;;;9.68;3.40;;;;;;;;;;5063687;28;20082;-77
2023/07/26 03:46:21;;;;;;;5.70;3.38;;;;;;;;;;5059311;28;20090;-76
2023/07/26 03:48:47;;;;;;;11.90;3.80;;;;;;;;;;5048198;28;20079;-76
2023/07/26 03:51:13;;;;;;;7.35;3.28;;;;;;;;;;5043811;28;20472;-76
2023/07/26 03:53:39;;;;;;;9.85;3.45;;;;;;;;;;5046008;28;20044;-77
2023/07/26 03:56:06;;;;;;;7.07;3.30;;;;;;;;;;5065049;28;20124;-77
2023/07/26 03:58:32;;;;;;;7.75;3.78;;;;;;;;;;5061813;28;21783;-77
2023/07/26 04:00:58;;;;;;;8.23;3.33;;;;;;;;;;5065686;28;20184;-77
2023/07/26 04:03:25;;;;;;;10.00;3.40;;;;;;;;;;5020865;28;20091;-77
2023/07/26 04:05:51;;;;;;;8.38;3.53;;;;;;;;;;5019497;28;20810;-78
2023/07/26 04:08:17;;;;;;;13.32;4.13;;;;;;;;;;5027071;28;20067;-77
2023/07/26 04:10:43;;;;;;;8.05;3.33;;;;;;;;;;5031438;28;20047;-76
2023/07/26 04:13:09;;;;;;;9.77;3.20;;;;;;;;;;5047234;28;20139;-76
2023/07/26 04:15:35;;;;;;;10.43;3.42;;;;;;;;;;5047594;28;20145;-76
2023/07/26 04:18:01;;;;;;;5.70;3.40;;;;;;;;;;5012182;28;20047;-74
2023/07/26 04:20:27;;;;;;;8.10;2.88;;;;;;;;;;5043880;28;20047;-76
2023/07/26 04:22:53;;;;;;;7.13;3.20;;;;;;;;;;5045269;28;20113;-76
2023/07/26 04:25:20;;;;;;;7.18;3.10;;;;;;;;;;5026835;28;20563;-75
2023/07/26 04:27:46;;;;;;;7.15;3.20;;;;;;;;;;5043604;28;20041;-77
2023/07/26 04:30:12;;;;;;;5.50;2.92;;;;;;;;;;5042915;28;20491;-75
2023/07/26 04:32:38;;;;;;;5.95;3.03;;;;;;;;;;5043557;28;20052;-76
2023/07/26 04:35:04;;;;;;;8.70;3.30;;;;;;;;;;5024390;28;20044;-76
2023/07/26 04:37:30;;;;;;;4.15;2.72;;;;;;;;;;5043177;28;20083;-76
2023/07/26 04:39:56;;;;;;;8.00;3.15;;;;;;;;;;5061072;28;20067;-78
2023/07/26 04:42:22;;;;;;;10.95;3.72;;;;;;;;;;5025882;28;20044;-77
2023/07/26 04:44:48;;;;;;;8.43;3.42;;;;;;;;;;5045078;28;22061;-77
2023/07/26 04:47:15;;;;;;;4.63;2.78;;;;;;;;;;5030819;28;20055;-76
2023/07/26 04:49:42;;;;;;;7.50;2.92;;;;;;;;;;5042465;28;20048;-77
2023/07/26 04:52:08;;;;;;;5.63;2.78;;;;;;;;;;5012821;28;20068;-77
2023/07/26 04:54:34;;;;;;;8.13;3.05;;;;;;;;;;5050358;28;20059;-77
2023/07/26 04:57:00;;;;;;;8.43;3.47;;;;;;;;;;5051556;28;20052;-77
2023/07/26 04:59:26;;;;;;;4.75;2.88;;;;;;;;;;5033984;28;20055;-76
2023/07/26 05:01:52;;;;;;;7.75;3.33;;;;;;;;;;5060518;28;21346;-77
2023/07/26 05:04:19;;;;;;;4.95;2.80;;;;;;;;;;5077620;28;20051;-76
2023/07/26 05:06:45;;;;;;;4.47;2.90;;;;;;;;;;5065069;28;20056;-77
2023/07/26 05:09:11;;;;;;;4.90;3.20;;;;;;;;;;5070545;28;20051;-83
2023/07/26 05:11:37;;;;;;;9.68;3.10;;;;;;;;;;5081475;28;20040;-83
2023/07/26 05:14:03;;;;;;;8.43;3.08;;;;;;;;;;5055157;28;20117;-83
2023/07/26 05:16:29;;;;;;;10.25;3.33;;;;;;;;;;5068641;28;20508;-84
2023/07/26 05:18:57;;;;;;;7.45;3.05;;;;;;;;;;5070152;28;20040;-83
2023/07/26 05:21:24;;;;;;;6.93;3.08;;;;;;;;;;5084054;28;20056;-81
2023/07/26 05:23:51;;;;;;;7.78;3.15;;;;;;;;;;5058978;28;20115;-82
2023/07/26 05:26:19;;;;;;;6.18;3.00;;;;;;;;;;5061961;28;20083;-85
2023/07/26 05:28:45;;;;;;;5.13;3.22;;;;;;;;;;5065934;28;20063;-84
2023/07/26 05:31:12;;;;;;;7.85;3.08;;;;;;;;;;5096127;28;20051;-83
2023/07/26 05:33:38;;;;;;;7.65;3.13;;;;;;;;;;5055661;28;20043;-83
2023/07/26 05:36:05;;;;;;;4.47;3.00;;;;;;;;;;5076117;28;20043;-82
2023/07/26 05:38:31;;;;;;;4.70;2.75;;;;;;;;;;5075814;28;20063;-83
2023/07/26 05:41:05;;;;;;;7.72;3.47;;;;;;;;;;5080997;28;20110;-83
2023/07/26 05:43:31;;;;;;;8.35;3.10;;;;;;;;;;5079498;28;20051;-83
2023/07/26 05:45:57;;;;;;;8.65;3.22;;;;;;;;;;5078254;28;20040;-84
2023/07/26 05:48:23;;;;;;;5.30;3.00;;;;;;;;;;5079218;28;20403;-84
2023/07/26 05:50:49;;;;;;;5.15;3.08;;;;;;;;;;5079568;28;20075;-84
2023/07/26 05:53:15;;;;;;;6.22;3.13;;;;;;;;;;5079510;28;20496;-83
2023/07/26 05:55:42;;;;;;;6.72;3.40;;;;;;;;;;5082187;28;20047;-82
2023/07/26 05:58:08;;;;;;;8.18;2.97;;;;;;;;;;5074061;28;20043;-85
2023/07/26 06:00:34;;;;;;;6.07;3.05;;;;;;;;;;5074978;28;20044;-84
2023/07/26 06:03:00;;;;;;;6.80;3.05;;;;;;;;;;5062742;28;20059;-85
2023/07/26 06:05:27;;;;;;;4.35;3.05;;;;;;;;;;5061749;28;20109;-83
2023/07/26 06:07:53;;;;;;;4.78;2.80;;;;;;;;;;5036270;28;20102;-82
2023/07/26 06:10:19;;;;;;;7.35;3.15;;;;;;;;;;5039432;28;20471;-83
2023/07/26 06:12:46;;;;;;;7.18;3.47;;;;;;;;;;5043140;28;20097;-84
2023/07/26 06:15:12;;;;;;;5.88;3.40;;;;;;;;;;5078459;28;20046;-83
2023/07/26 06:17:38;;;;;;;4.53;2.90;;;;;;;;;;5061621;28;20047;-84
2023/07/26 06:20:05;;;;;;;7.20;3.40;;;;;;;;;;5047356;28;20040;-82
2023/07/26 06:22:31;;;;;;;4.15;3.53;;;;;;;;;;5044418;28;20044;-84
2023/07/26 06:24:57;;;;;;;9.15;3.25;;;;;;;;;;5043250;28;20643;-83
2023/07/26 06:27:25;;;;;;;8.80;3.40;;;;;;;;;;5059377;28;20056;-84
2023/07/26 06:29:51;;;;;;;10.25;3.60;;;;;;;;;;5046782;28;20058;-85
2023/07/26 06:32:17;;;;;;;5.85;3.30;;;;;;;;;;5036338;28;20668;-82
2023/07/26 06:34:43;;;;;;;6.28;2.92;;;;;;;;;;5078226;28;20047;-84
2023/07/26 06:37:09;;;;;;;11.07;3.17;;;;;;;;;;5061874;28;20058;-82
2023/07/26 06:39:36;;;;;;;7.65;3.08;;;;;;;;;;5055159;28;20116;-82
2023/07/26 06:42:02;;;;;;;5.82;2.53;;;;;;;;;;5052837;28;21730;-81
2023/07/26 06:44:28;;;;;;;7.18;2.15;;;;;;;;;;5060682;28;20476;-80
2023/07/26 06:46:54;;;;;;;8.27;2.58;;;;;;;;;;5060371;28;20048;-80
2023/07/26 06:49:20;;;;;;;5.05;2.90;;;;;;;;;;5038020;28;20040;-79
2023/07/26 06:51:46;;;;;;;3.55;2.15;;;;;;;;;;5061015;28;20184;-79
2023/07/26 06:54:12;;;;;;;6.07;2.35;;;;;;;;;;5035380;28;20061;-80
2023/07/26 06:56:38;;;;;;;3.80;2.10;;;;;;;;;;5047356;28;20195;-80
2023/07/26 06:59:11;;;;;;;3.70;2.40;;;;;;;;;;5030102;28;20484;-80
2023/07/26 07:01:37;;;;;;;3.15;2.15;;;;;;;;;;5046044;28;20503;-81
2023/07/26 07:04:03;;;;;;;6.03;2.70;;;;;;;;;;5066190;28;20402;-80
2023/07/26 07:06:29;;;;;;;4.45;1.90;;;;;;;;;;5070812;28;20048;-79
2023/07/26 07:08:55;;;;;;;4.82;2.45;;;;;;;;;;5086435;28;20063;-81
2023/07/26 07:11:21;;;;;;;4.85;2.42;;;;;;;;;;5065134;28;20051;-81
2023/07/26 07:13:47;;;;;;;4.85;2.97;;;;;;;;;;5066956;28;20062;-81
2023/07/26 07:16:13;;;;;;;13.90;4.00;;;;;;;;;;5032540;28;20090;-81
2023/07/26 07:18:39;;;;;;;5.15;3.08;;;;;;;;;;5065749;28;20048;-83
2023/07/26 07:21:06;;;;;;;6.88;3.60;;;;;;;;;;5064969;28;20123;-83
2023/07/26 07:23:32;;;;;;;6.30;3.83;;;;;;;;;;5045190;28;20596;-82
2023/07/26 07:25:59;;;;;;;5.32;3.10;;;;;;;;;;5053324;28;20051;-82
2023/07/26 07:28:25;;;;;;;5.40;3.83;;;;;;;;;;5051292;28;20125;-83
2023/07/26 07:30:51;;;;;;;5.80;3.20;;;;;;;;;;5067939;28;20490;-84
2023/07/26 07:33:17;;;;;;;5.40;3.40;;;;;;;;;;5066376;28;20635;-84
2023/07/26 07:35:43;;;;;;;4.35;2.83;;;;;;;;;;5050731;28;20070;-82
2023/07/26 07:38:10;;;;;;;6.50;2.80;;;;;;;;;;5063401;28;20047;-82
2023/07/26 07:40:36;;;;;;;4.63;2.97;;;;;;;;;;5088171;27;20421;-82
2023/07/26 07:43:02;;;;;;;5.80;3.10;;;;;;;;;;5056935;28;20081;-82
2023/07/26 07:45:29;;;;;;;4.82;2.70;;;;;;;;;;5070026;28;20099;-83
2023/07/26 07:47:55;;;;;;;6.03;2.28;;;;;;;;;;5068132;28;20066;-82
2023/07/26 07:50:22;;;;;;;3.22;2.00;;;;;;;;;;5067656;28;20499;-84
2023/07/26 07:52:48;;;;;;;2.75;1.98;;;;;;;;;;5086195;27;20174;-83
2023/07/26 07:55:14;;;;;;;7.07;2.22;;;;;;;;;;5062741;28;20048;-83
2023/07/26 07:57:41;;;;;;;4.35;1.80;;;;;;;;;;5099404;28;20123;-82
2023/07/26 08:00:09;;;;;;;2.13;1.80;;;;;;;;;;5059639;28;20063;-83
2023/07/26 08:02:35;;;;;;;2.22;1.60;;;;;;;;;;5041937;28;20523;-82
2023/07/26 08:05:01;;;;;;;3.20;1.85;;;;;;;;;;5079330;28;20093;-83
2023/07/26 08:07:27;;;;;;;3.55;2.00;;;;;;;;;;5077440;28;20135;-82
2023/07/26 08:09:53;;;;;;;3.92;1.98;;;;;;;;;;5080331;28;20491;-81
2023/07/26 08:12:19;;;;;;;1.60;1.50;;;;;;;;;;5041438;28;20491;-82
2023/07/26 08:14:52;;;;;;;3.25;1.95;;;;;;;;;;5062694;28;20047;-80
2023/07/26 08:17:18;;;;;;;4.30;1.98;;;;;;;;;;5078009;28;20085;-81
2023/07/26 08:19:44;;;;;;;2.05;1.77;;;;;;;;;;5078959;28;20113;-83
2023/07/26 08:22:11;;;;;;;3.05;1.58;;;;;;;;;;5077311;28;20491;-82
2023/07/26 08:24:37;;;;;;;2.25;1.48;;;;;;;;;;5080480;28;20109;-82
2023/07/26 08:27:06;;;;;;;4.65;1.90;;;;;;;;;;5079360;28;20104;-81
2023/07/26 08:29:32;;;;;;;2.50;1.58;;;;;;;;;;5072779;28;20116;-78
2023/07/26 08:31:59;;;;;;;2.00;1.80;;;;;;;;;;5051609;28;20092;-76
2023/07/26 08:34:25;;;;;;;3.28;1.70;;;;;;;;;;5075584;28;20051;-78
2023/07/26 08:36:51;;;;;;;6.25;1.38;;;;;;;;;;5073020;28;20079;-78
2023/07/26 08:39:17;;;;;;;2.78;1.50;;;;;;;;;;5078344;28;20503;-78
2023/07/26 08:41:43;;;;;;;2.33;1.60;;;;;;;;;;5075041;28;20047;-76
2023/07/26 08:44:09;;;;;;;2.03;1.48;;;;;;;;;;5079497;28;20048;-77
2023/07/26 08:46:40;;;;;;;2.30;1.48;;;;;;;;;;5079434;28;20052;-77
2023/07/26 08:49:07;;;;;;;1.55;1.02;;;;;;;;;;5099063;28;20075;-76
2023/07/26 08:51:33;;;;;;;6.25;1.30;;;;;;;;;;5097394;28;20099;-76
2023/07/26 08:53:59;;;;;;;2.03;1.35;;;;;;;;;;5084051;28;20063;-75
2023/07/26 08:56:26;;;;;;;1.20;1.05;;;;;;;;;;5081993;28;20108;-75
2023/07/26 08:58:52;;;;;;;1.63;1.10;;;;;;;;;;5060597;27;20090;-75
2023/07/26 09:01:19;;;;;;;1.20;1.10;;;;;;;;;;5078615;28;20166;-75
2023/07/26 09:03:45;;;;;;;2.17;1.30;;;;;;;;;;5061117;28;20047;-76
2023/07/26 09:06:11;;;;;;;1.50;1.20;;;;;;;;;;5092280;27;20058;-76
2023/07/26 09:08:37;;;;;;;2.28;1.38;;;;;;;;;;5074663;28;20060;-76
2023/07/26 09:11:23;;;;;;;1.65;1.33;;;;;;;;;;5073717;28;21320;-76
2023/07/26 09:14:09;;;;;;;2.28;1.50;;;;;;;;;;5072636;28;20783;-77
2023/07/26 09:16:35;;;;;;;3.08;1.75;;;;;;;;;;5054430;28;20082;-77
2023/07/26 09:19:04;;;;;;;4.30;1.40;;;;;;;;;;5091803;27;20047;-80
2023/07/26 09:21:34;;;;;;;3.88;1.70;;;;;;;;;;5061929;28;20058;-81
2023/07/26 09:24:01;;;;;;;1.73;1.58;;;;;;;;;;5095539;28;20086;-81
2023/07/26 09:26:34;;;;;;;2.63;2.05;;;;;;;;;;5075784;28;20052;-83
2023/07/26 09:29:00;;;;;;;1.95;1.45;;;;;;;;;;5073917;28;20112;-82
2023/07/26 09:31:30;;;;;;;1.90;1.52;;;;;;;;;;5053896;28;20107;-82
2023/07/26 09:33:57;;;;;;;2.90;1.70;;;;;;;;;;5070150;28;20126;-81
2023/07/26 09:36:23;;;;;;;4.47;1.80;;;;;;;;;;5091381;28;20600;-82
2023/07/26 09:38:49;;;;;;;1.75;1.52;;;;;;;;;;5055224;28;20218;-83
2023/07/26 09:41:23;;;;;;;4.80;2.58;;;;;;;;;;5094191;28;20047;-80
2023/07/26 09:43:51;;;;;;;2.72;1.85;;;;;;;;;;5075504;28;20051;-83
2023/07/26 09:46:17;;;;;;;2.97;1.95;;;;;;;;;;5061150;28;20047;-82
2023/07/26 09:48:59;;;;;;;5.57;2.00;;;;;;;;;;5089470;28;20035;-82
2023/07/26 09:51:29;;;;;;;2.13;1.80;;;;;;;;;;5070365;28;20066;-82
2023/07/26 09:53:59;;;;;;;2.20;1.67;;;;;;;;;;5071839;28;20130;-82
2023/07/26 09:56:32;;;;;;;3.10;1.85;;;;;;;;;;5070439;28;20043;-82
2023/07/26 09:58:58;;;;;;;5.05;1.67;;;;;;;;;;5071089;28;20579;-80
2023/07/26 10:01:25;;;;;;;2.50;1.85;;;;;;;;;;5079591;27;20051;-82
2023/07/26 10:03:52;;;;;;;2.80;1.90;;;;;;;;;;5051515;28;20051;-82
2023/07/26 10:06:20;;;;;;;3.78;2.00;;;;;;;;;;5083826;28;20054;-83
2023/07/26 10:08:49;;;;;;;4.28;1.63;;;;;;;;;;5081875;28;20039;-81
2023/07/26 10:11:15;;;;;;;2.40;2.17;;;;;;;;;;5047850;28;20057;-82
2023/07/26 10:13:45;;;;;;;5.60;2.20;;;;;;;;;;5081181;28;20072;-79
2023/07/26 10:16:12;;;;;;;4.10;1.80;;;;;;;;;;5064770;28;20113;-81
2023/07/26 10:18:38;;;;;;;3.85;2.05;;;;;;;;;;5066726;28;20055;-82
2023/07/26 10:21:05;;;;;;;2.78;1.85;;;;;;;;;;5066443;28;20078;-82
2023/07/26 10:23:31;;;;;;;2.55;1.90;;;;;;;;;;5080442;28;20047;-81
2023/07/26 10:26:00;;;;;;;3.67;1.90;;;;;;;;;;5083976;28;20365;-81
2023/07/26 10:28:26;;;;;;;3.20;2.10;;;;;;;;;;5053860;28;20047;-82
2023/07/26 10:30:53;;;;;;;3.65;2.20;;;;;;;;;;5070898;28;20071;-82
2023/07/26 10:33:21;;;;;;;4.20;2.08;;;;;;;;;;5066583;28;20067;-82
2023/07/26 10:35:47;;;;;;;5.60;1.88;;;;;;;;;;5081859;28;20051;-82
2023/07/26 10:38:15;;;;;;;2.38;2.08;;;;;;;;;;5082048;28;20047;-82
2023/07/26 10:40:43;;;;;;;3.95;1.85;;;;;;;;;;5083723;28;20416;-82
2023/07/26 10:43:25;;;;;;;3.03;1.98;;;;;;;;;;5066987;28;20583;-81
2023/07/26 10:45:55;;;;;;;7.05;2.85;;;;;;;;;;5064348;28;20083;-82
2023/07/26 10:48:21;;;;;;;4.75;2.30;;;;;;;;;;5082130;28;21447;-82
2023/07/26 10:50:48;;;;;;;9.32;3.20;;;;;;;;;;5068789;28;20493;-83
2023/07/26 10:53:31;;;;;;;46.38;3.97;;;;;;;;;;5049912;28;21449;-78
2023/07/26 10:56:07;;;;;;;41.38;3.97;;;;;;;;;;5066274;28;20637;-80
2023/07/26 10:58:33;;;;;;;4.43;2.47;;;;;;;;;;5081751;28;20392;-80
2023/07/26 11:01:05;;;;;;;5.05;2.90;;;;;;;;;;5073803;28;20057;-80
2023/07/26 11:03:31;;;;;;;11.68;3.60;;;;;;;;;;5049248;28;20044;-79
2023/07/26 11:05:58;;;;;;;7.57;3.85;;;;;;;;;;5045215;28;20159;-80
2023/07/26 11:08:43;;;;;;;12.20;5.10;;;;;;;;;;5060562;28;20317;-80
2023/07/26 11:11:09;;;;;;;8.70;5.22;;;;;;;;;;5061497;28;20044;-80
2023/07/26 11:13:35;;;;;;;9.10;4.75;;;;;;;;;;5045136;28;20044;-80
2023/07/26 11:16:02;;;;;;;10.13;4.95;;;;;;;;;;5066822;28;20102;-81
2023/07/26 11:18:28;;;;;;;12.35;4.82;;;;;;;;;;5049037;28;20054;-79
2023/07/26 11:20:55;;;;;;;9.48;5.55;;;;;;;;;;5062696;28;20133;-79
2023/07/26 11:23:22;;;;;;;12.73;5.97;;;;;;;;;;5051871;28;20056;-80
2023/07/26 11:25:49;;;;;;;9.90;5.63;;;;;;;;;;5036583;28;20898;-80
2023/07/26 11:28:16;;;;;;;12.73;5.07;;;;;;;;;;5052659;28;20506;-80
2023/07/26 11:30:46;;;;;;;7.47;5.25;;;;;;;;;;5050271;28;20059;-73
2023/07/26 11:33:12;;;;;;;9.43;4.88;;;;;;;;;;5050364;28;20044;-73
2023/07/26 11:35:40;;;;;;;7.38;4.22;;;;;;;;;;5068063;28;20131;-73
2023/07/26 11:38:07;;;;;;;5.15;3.65;;;;;;;;;;5051425;28;20109;-73
2023/07/26 11:40:43;;;;;;;5.43;3.45;;;;;;;;;;5028760;28;20066;-74
2023/07/26 11:43:10;;;;;;;4.70;2.88;;;;;;;;;;5067698;28;20508;-73
2023/07/26 11:45:37;;;;;;;2.53;1.60;;;;;;;;;;5061261;28;20484;-73
2023/07/26 11:48:09;;;;;;;4.80;1.50;;;;;;;;;;5067745;28;20106;-79
2023/07/26 11:50:38;;;;;;;2.65;1.70;;;;;;;;;;5052431;28;20620;-79
2023/07/26 11:53:05;;;;;;;2.63;1.70;;;;;;;;;;5051975;28;21199;-80
2023/07/26 11:55:32;;;;;;;1.55;1.30;;;;;;;;;;5052470;28;20097;-79
2023/07/26 11:58:06;;;;;;;1.50;1.05;;;;;;;;;;5051884;28;20060;-81
2023/07/26 12:00:33;;;;;;;2.55;1.10;;;;;;;;;;5040017;28;20461;-79
2023/07/26 12:03:01;;;;;;;2.45;0.98;;;;;;;;;;5074165;28;20170;-80
2023/07/26 12:05:28;;;;;;;2.17;1.52;;;;;;;;;;5095109;28;20054;-80
2023/07/26 12:07:55;;;;;;;1.98;1.10;;;;;;;;;;5089692;28;20918;-80
2023/07/26 12:10:29;;;;;;;3.42;1.00;;;;;;;;;;5075165;28;20132;-78
2023/07/26 12:12:55;;;;;;;2.15;0.70;;;;;;;;;;5091541;28;20563;-81
2023/07/26 12:15:23;;;;;;;2.05;1.10;;;;;;;;;;5070709;28;21269;-81
2023/07/26 12:17:56;;;;;;;2.05;0.93;;;;;;;;;;5073218;28;20089;-80
2023/07/26 12:20:24;;;;;;;9.98;1.35;;;;;;;;;;5071500;28;20541;-81
2023/07/26 12:22:54;;;;;;;3.10;1.13;;;;;;;;;;5068743;28;20063;-80
2023/07/26 12:25:21;;;;;;;2.65;1.20;;;;;;;;;;5088035;27;20512;-79
2023/07/26 12:27:53;;;;;;;2.38;1.13;;;;;;;;;;5071965;28;21007;-80
2023/07/26 12:30:19;;;;;;;2.67;1.23;;;;;;;;;;5089797;28;20043;-79
2023/07/26 12:32:45;;;;;;;0.85;0.82;;;;;;;;;;5073581;28;20466;-81
2023/07/26 12:35:22;;;;;;;5.05;0.90;;;;;;;;;;5072373;28;20140;-81
2023/07/26 12:37:52;;;;;;;1.88;1.10;;;;;;;;;;5073635;28;20048;-79
2023/07/26 12:40:20;;;;;;;1.40;0.93;;;;;;;;;;5070871;28;20047;-80
2023/07/26 12:42:46;;;;;;;5.63;1.10;;;;;;;;;;5078342;28;20523;-82
2023/07/26 12:45:13;;;;;;;5.43;1.15;;;;;;;;;;5098083;28;20051;-80
2023/07/26 12:47:43;;;;;;;1.25;1.15;;;;;;;;;;5078517;28;20047;-81
2023/07/26 12:50:09;;;;;;;2.35;1.10;;;;;;;;;;5087354;28;20048;-81
2023/07/26 12:52:37;;;;;;;2.00;1.10;;;;;;;;;;5054954;28;20059;-80
2023/07/26 12:55:04;;;;;;;1.90;0.90;;;;;;;;;;5068673;28;20072;-80
2023/07/26 12:57:30;;;;;;;2.67;1.13;;;;;;;;;;5068903;28;20132;-81
2023/07/26 12:59:56;;;;;;;6.50;1.10;;;;;;;;;;5067016;28;20050;-81
2023/07/26 13:02:22;;;;;;;2.53;1.35;;;;;;;;;;5068862;28;20059;-82
2023/07/26 13:04:48;;;;;;;8.38;1.35;;;;;;;;;;5069030;28;20142;-80
2023/07/26 13:07:14;;;;;;;6.57;1.20;;;;;;;;;;5052850;28;20059;-82
2023/07/26 13:09:40;;;;;;;2.42;1.02;;;;;;;;;;5067572;28;21298;-81
2023/07/26 13:12:06;;;;;;;5.53;1.52;;;;;;;;;;5064721;28;20040;-82
2023/07/26 13:14:33;;;;;;;7.93;1.60;;;;;;;;;;5063804;28;20062;-80
2023/07/26 13:16:59;;;;;;;1.52;1.02;;;;;;;;;;5084478;28;20061;-82
2023/07/26 13:19:25;;;;;;;3.42;1.23;;;;;;;;;;5081308;27;20051;-82
2023/07/26 13:21:51;;;;;;;5.22;1.58;;;;;;;;;;5048442;28;21983;-81
2023/07/26 13:24:18;;;;;;;2.90;1.10;;;;;;;;;;5067814;28;20152;-82
2023/07/26 13:26:44;;;;;;;4.03;1.52;;;;;;;;;;5069575;28;20043;-79
2023/07/26 13:29:10;;;;;;;5.03;1.55;;;;;;;;;;5065806;28;20043;-78
2023/07/26 13:31:36;;;;;;;4.13;1.48;;;;;;;;;;5065923;28;20075;-81
2023/07/26 13:34:02;;;;;;;3.60;1.50;;;;;;;;;;5066338;28;22542;-79
2023/07/26 13:36:29;;;;;;;3.28;1.25;;;;;;;;;;5038555;28;20060;-79
2023/07/26 13:38:55;;;;;;;3.78;1.45;;;;;;;;;;5069202;28;20536;-81
2023/07/26 13:41:21;;;;;;;4.03;1.05;;;;;;;;;;5085382;28;20047;-80
2023/07/26 13:43:47;;;;;;;5.03;1.45;;;;;;;;;;5087030;28;20051;-80
2023/07/26 13:46:14;;;;;;;4.45;1.33;;;;;;;;;;5086458;27;20075;-80
2023/07/26 13:48:40;;;;;;;6.38;1.60;;;;;;;;;;5089650;28;20044;-79
2023/07/26 13:51:06;;;;;;;5.38;1.40;;;;;;;;;;5071042;28;20144;-80
2023/07/26 13:53:32;;;;;;;2.33;1.20;;;;;;;;;;5089419;28;20043;-80
2023/07/26 13:55:58;;;;;;;4.72;1.45;;;;;;;;;;5069071;28;20499;-81
2023/07/26 13:58:24;;;;;;;3.67;1.65;;;;;;;;;;5064492;28;20044;-80
2023/07/26 14:00:50;;;;;;;3.13;1.30;;;;;;;;;;5086202;27;20047;-80
2023/07/26 14:03:16;;;;;;;2.63;1.60;;;;;;;;;;5055673;28;20531;-81
2023/07/26 14:05:43;;;;;;;2.75;1.38;;;;;;;;;;5084785;28;20040;-81
2023/07/26 14:08:09;;;;;;;4.40;1.63;;;;;;;;;;5057938;28;20046;-77
2023/07/26 14:10:35;;;;;;;6.97;1.50;;;;;;;;;;5064914;28;20404;-78
2023/07/26 14:13:01;;;;;;;5.30;1.50;;;;;;;;;;5045363;28;20085;-78
2023/07/26 14:15:27;;;;;;;2.95;1.23;;;;;;;;;;5065415;28;20123;-78
2023/07/26 14:17:53;;;;;;;6.90;1.77;;;;;;;;;;5082387;28;20062;-78
2023/07/26 14:20:19;;;;;;;6.07;1.60;;;;;;;;;;5061049;28;20048;-77
2023/07/26 14:22:45;;;;;;;3.22;1.60;;;;;;;;;;5080028;28;20052;-79
2023/07/26 14:25:12;;;;;;;3.90;1.70;;;;;;;;;;5063502;28;20055;-77
2023/07/26 14:27:38;;;;;;;2.22;1.33;;;;;;;;;;5045434;28;20474;-78
2023/07/26 14:30:05;;;;;;;2.40;1.50;;;;;;;;;;5042801;28;20047;-79
2023/07/26 14:32:31;;;;;;;1.83;1.60;;;;;;;;;;5079556;28;20048;-77
2023/07/26 14:34:57;;;;;;;4.22;1.42;;;;;;;;;;5078837;28;20056;-77
2023/07/26 14:37:26;;;;;;;8.80;1.70;;;;;;;;;;5083070;28;20051;-78
2023/07/26 14:39:56;;;;;;;6.20;2.15;;;;;;;;;;5059339;28;20066;-77